< < Back
Terminal Aerodrome Forecast


Current Version              Previous Versions:   1  2  3  4  5  6  7  8  9  

Terminal Aerodrome Forecast

788
FTUS42 KILM 012100 AAA
TAFILM
TAF AMD
KILM 012108Z 0121/0218 19011KT P6SM FEW030
      TEMPO 0121/0123 VRB15KT 4SM -TSRA SCT030CB
     FM020000 21006KT P6SM FEW015 SCT050 SCT120
     FM020900 23004KT P6SM VCSH SCT040 BKN080
     FM021300 27008KT P6SM SCT015 SCT050 SCT140=



Latest METAR

664
SAUS70 KWBC 010700 RRX
MTRILM
METAR KILM 020653Z AUTO 23003KT 10SM CLR 26/24 A3007 RMK AO2 SLP182
T02560244


USA.gov is the U.S. government's official web portal to all federal, state and local government web resources and services.